Time;durP1;ratioP1;P1;durP2;ratioP2;P2;SDS_P1;SDS_P2;PMS_P1;PMS_P2;Temp;Humidity;BMP_temperature;BMP_pressure;BME280_temperature;BME280_humidity;BME280_pressure;Samples;Min_cycle;Max_cycle;Signal;HPM_P1;HPM_P2
2023/09/12 03:01:19;;;;;;;9.82;5.28;;;21.50;91.70;;;;;;5060741;28;20520;-84
2023/09/12 03:03:49;;;;;;;13.45;5.35;;;21.50;91.70;;;;;;5050156;28;20762;-84
2023/09/12 03:06:15;;;;;;;15.10;5.40;;;21.50;91.70;;;;;;5043753;28;20032;-84
2023/09/12 03:08:41;;;;;;;16.55;6.50;;;21.50;91.60;;;;;;5062796;28;20108;-84
2023/09/12 03:11:07;;;;;;;11.43;5.07;;;21.50;91.60;;;;;;5046091;28;20033;-84
2023/09/12 03:13:37;;;;;;;15.07;5.38;;;21.50;91.60;;;;;;5046266;28;20036;-84
2023/09/12 03:16:03;;;;;;;13.35;5.50;;;21.50;91.60;;;;;;5066732;28;20044;-84
2023/09/12 03:18:29;;;;;;;9.18;5.28;;;21.50;91.60;;;;;;5045323;28;20393;-84
2023/09/12 03:20:55;;;;;;;11.75;5.63;;;21.50;91.60;;;;;;5062853;28;20123;-84
2023/09/12 03:23:20;;;;;;;12.98;5.75;;;21.50;91.60;;;;;;5063029;28;20021;-84
2023/09/12 03:25:46;;;;;;;9.07;5.15;;;21.50;91.60;;;;;;5048103;28;20519;-84
2023/09/12 03:28:12;;;;;;;16.90;4.88;;;21.50;91.50;;;;;;5065992;28;21842;-83
2023/09/12 03:30:38;;;;;;;9.85;5.18;;;21.50;91.50;;;;;;5063620;28;20028;-83
2023/09/12 03:33:05;;;;;;;12.15;5.53;;;21.50;91.50;;;;;;5062924;28;20032;-84
2023/09/12 03:35:32;;;;;;;11.52;5.35;;;21.50;91.50;;;;;;5045257;28;20632;-83
2023/09/12 03:37:58;;;;;;;8.20;4.88;;;21.50;91.50;;;;;;5045972;28;20032;-84
2023/09/12 03:40:23;;;;;;;15.55;5.80;;;21.50;91.50;;;;;;5062765;28;20488;-84
2023/09/12 03:42:49;;;;;;;11.73;5.32;;;21.50;91.50;;;;;;5045470;28;20017;-83
2023/09/12 03:45:15;;;;;;;16.80;5.43;;;21.40;91.40;;;;;;5045374;28;20461;-84
2023/09/12 03:47:40;;;;;;;12.98;5.55;;;21.50;91.50;;;;;;5046182;28;20025;-83
2023/09/12 03:50:06;;;;;;;8.82;5.00;;;21.50;91.40;;;;;;5062190;28;20111;-83
2023/09/12 03:52:32;;;;;;;12.82;5.32;;;21.50;91.40;;;;;;5045472;28;20482;-84
2023/09/12 03:55:00;;;;;;;16.15;5.35;;;21.40;91.40;;;;;;5063889;28;20032;-83
2023/09/12 03:57:26;;;;;;;11.02;5.13;;;21.40;91.40;;;;;;5052805;28;20025;-84
2023/09/12 03:59:52;;;;;;;12.57;5.72;;;21.40;91.40;;;;;;5062935;28;20023;-83
2023/09/12 04:02:18;;;;;;;10.93;4.82;;;21.40;91.40;;;;;;5063520;28;20024;-83
2023/09/12 04:04:44;;;;;;;13.80;5.40;;;21.40;91.30;;;;;;5045230;28;20040;-83
2023/09/12 04:07:09;;;;;;;13.43;5.20;;;21.40;91.30;;;;;;5045209;28;20359;-84
2023/09/12 04:09:35;;;;;;;10.52;4.95;;;21.40;91.30;;;;;;5032230;28;20079;-83
2023/09/12 04:12:01;;;;;;;15.65;5.38;;;21.40;91.30;;;;;;5043780;28;20024;-83
2023/09/12 04:14:26;;;;;;;15.32;5.40;;;21.40;91.30;;;;;;5045054;28;20024;-83
2023/09/12 04:16:52;;;;;;;9.15;5.43;;;21.40;91.30;;;;;;5043079;28;20021;-83
2023/09/12 04:19:18;;;;;;;14.38;5.35;;;21.40;91.30;;;;;;5026819;28;20024;-84
2023/09/12 04:21:46;;;;;;;11.63;5.35;;;21.40;91.30;;;;;;5045033;28;20043;-83
2023/09/12 04:24:12;;;;;;;16.85;5.35;;;21.40;91.30;;;;;;5024151;28;20367;-84
2023/09/12 04:26:37;;;;;;;15.23;5.18;;;21.40;91.20;;;;;;5045367;28;20089;-83
2023/09/12 04:29:03;;;;;;;15.15;4.95;;;21.40;91.30;;;;;;5026542;28;20470;-84
2023/09/12 04:31:28;;;;;;;15.38;5.25;;;21.40;91.20;;;;;;5032016;28;20088;-83
2023/09/12 04:33:54;;;;;;;11.30;5.43;;;21.40;91.20;;;;;;5044202;28;20116;-83
2023/09/12 04:36:20;;;;;;;9.68;5.47;;;21.40;91.20;;;;;;5042025;28;20014;-83
2023/09/12 04:38:46;;;;;;;13.88;6.00;;;21.30;91.10;;;;;;5041765;28;20470;-84
2023/09/12 04:41:16;;;;;;;13.52;5.70;;;21.40;91.20;;;;;;5030089;28;20028;-83
2023/09/12 04:43:45;;;;;;;10.02;5.28;;;21.40;91.20;;;;;;5044815;28;20017;-84
2023/09/12 04:46:11;;;;;;;16.65;5.80;;;21.40;90.90;;;;;;5043098;28;20059;-83
2023/09/12 04:48:37;;;;;;;18.63;6.03;;;21.30;90.80;;;;;;5043692;28;20450;-83
2023/09/12 04:51:03;;;;;;;15.73;5.85;;;21.30;90.80;;;;;;5024393;28;20116;-82
2023/09/12 04:53:34;;;;;;;13.32;4.85;;;21.30;90.80;;;;;;5028532;28;20108;-83
2023/09/12 04:56:04;;;;;;;20.25;5.75;;;21.40;90.80;;;;;;5021830;28;20090;-83
2023/09/12 04:58:29;;;;;;;16.08;5.43;;;21.40;90.80;;;;;;5028174;28;20027;-83
2023/09/12 05:00:56;;;;;;;14.02;5.75;;;21.30;90.80;;;;;;5043940;28;20033;-83
2023/09/12 05:03:24;;;;;;;9.32;4.90;;;21.30;90.80;;;;;;5035726;28;20131;-83
2023/09/12 05:05:52;;;;;;;11.60;5.50;;;21.40;90.80;;;;;;5040900;28;20024;-83
2023/09/12 05:08:20;;;;;;;11.98;5.65;;;21.30;90.80;;;;;;5064478;28;20163;-83
2023/09/12 05:10:46;;;;;;;11.60;5.68;;;21.30;90.80;;;;;;5064419;28;20013;-83
2023/09/12 05:13:12;;;;;;;11.82;5.53;;;21.30;90.80;;;;;;5047836;28;20048;-83
2023/09/12 05:15:39;;;;;;;10.98;4.70;;;21.30;90.80;;;;;;5066575;28;20473;-83
2023/09/12 05:18:05;;;;;;;9.50;4.95;;;21.30;90.80;;;;;;5061823;28;20028;-83
2023/09/12 05:20:32;;;;;;;9.35;5.20;;;21.30;90.80;;;;;;5051421;28;20039;-83
2023/09/12 05:22:57;;;;;;;9.77;5.45;;;21.30;90.70;;;;;;5063721;28;20484;-83
2023/09/12 05:25:23;;;;;;;13.02;5.25;;;21.30;90.70;;;;;;5047118;28;20035;-83
2023/09/12 05:27:49;;;;;;;12.85;5.20;;;21.30;90.70;;;;;;5050540;28;20024;-83
2023/09/12 05:30:14;;;;;;;21.38;5.95;;;21.30;90.70;;;;;;5047357;28;20030;-82
2023/09/12 05:32:41;;;;;;;17.08;5.63;;;21.30;90.70;;;;;;5064833;28;20040;-83
2023/09/12 05:35:07;;;;;;;16.52;5.25;;;21.30;90.70;;;;;;5060985;28;20032;-82
2023/09/12 05:37:33;;;;;;;18.67;5.80;;;21.30;90.70;;;;;;5049289;28;20017;-83
2023/09/12 05:39:58;;;;;;;13.18;5.97;;;21.30;90.70;;;;;;5064610;28;20043;-83
2023/09/12 05:42:26;;;;;;;9.05;5.30;;;21.30;90.70;;;;;;5052270;28;20024;-83
2023/09/12 05:44:53;;;;;;;13.05;5.35;;;21.30;90.70;;;;;;5065822;28;20048;-84
2023/09/12 05:47:19;;;;;;;11.90;5.35;;;21.30;90.70;;;;;;5053631;28;20024;-84
2023/09/12 05:49:45;;;;;;;8.32;5.22;;;21.30;91.10;;;;;;5047495;28;20025;-83
2023/09/12 05:52:11;;;;;;;9.95;5.47;;;21.30;90.70;;;;;;5044024;28;20086;-83
2023/09/12 05:54:36;;;;;;;14.88;5.20;;;21.30;91.10;;;;;;5065644;28;20032;-83
2023/09/12 05:57:03;;;;;;;7.97;4.95;;;21.30;90.70;;;;;;5063523;28;20028;-83
2023/09/12 05:59:28;;;;;;;13.35;5.55;;;21.30;90.70;;;;;;5066999;28;20411;-84
2023/09/12 06:01:55;;;;;;;18.70;5.30;;;21.30;90.70;;;;;;5049117;28;20065;-84
2023/09/12 06:04:21;;;;;;;9.57;5.45;;;21.30;90.70;;;;;;5046292;28;20032;-84
2023/09/12 06:06:47;;;;;;;14.00;6.15;;;21.30;90.70;;;;;;5020827;28;20657;-84
2023/09/12 06:09:12;;;;;;;10.15;5.53;;;21.30;90.70;;;;;;5040861;28;20025;-83
2023/09/12 06:11:38;;;;;;;12.80;4.45;;;21.30;90.70;;;;;;5023955;28;20040;-83
2023/09/12 06:14:03;;;;;;;12.63;5.40;;;21.30;90.70;;;;;;5026576;28;20063;-83
2023/09/12 06:16:29;;;;;;;17.55;6.65;;;21.30;90.90;;;;;;5023728;28;20037;-84
2023/09/12 06:18:55;;;;;;;16.02;5.63;;;21.30;90.80;;;;;;5043668;28;20020;-83
2023/09/12 06:21:21;;;;;;;12.95;6.03;;;21.30;90.80;;;;;;5025431;28;20024;-84
2023/09/12 06:24:14;;;;;;;11.63;5.63;;;21.30;90.80;;;;;;5041397;28;20029;-84
2023/09/12 06:26:41;;;;;;;11.50;6.18;;;21.30;90.80;;;;;;5020597;28;20552;-84
2023/09/12 06:29:06;;;;;;;13.55;5.25;;;21.30;90.80;;;;;;5042798;28;20477;-84
2023/09/12 06:31:32;;;;;;;12.05;6.03;;;21.30;90.90;;;;;;5028848;28;20120;-83
2023/09/12 06:33:58;;;;;;;15.10;6.38;;;21.30;90.90;;;;;;5039736;28;20494;-84
2023/09/12 06:36:29;;;;;;;15.02;6.40;;;21.30;90.90;;;;;;5035559;28;20060;-84
2023/09/12 06:38:55;;;;;;;19.27;7.25;;;21.40;90.90;;;;;;5037613;28;20029;-84
2023/09/12 06:41:21;;;;;;;15.15;6.90;;;21.40;91.00;;;;;;5042343;28;20025;-84
2023/09/12 06:43:47;;;;;;;16.50;5.90;;;21.30;91.00;;;;;;5024454;28;20025;-84
2023/09/12 06:46:13;;;;;;;13.43;6.85;;;21.40;91.00;;;;;;5028331;28;20049;-84
2023/09/12 06:48:38;;;;;;;17.52;6.72;;;21.40;91.00;;;;;;5030425;28;20028;-84
2023/09/12 06:51:09;;;;;;;12.88;6.40;;;21.40;91.10;;;;;;5043800;28;20024;-84
2023/09/12 06:53:36;;;;;;;18.27;6.35;;;21.40;91.10;;;;;;5042584;28;20033;-83
2023/09/12 06:56:03;;;;;;;13.00;6.95;;;21.40;91.10;;;;;;5039058;28;20017;-84
2023/09/12 06:58:28;;;;;;;22.70;7.18;;;21.40;91.10;;;;;;5038907;28;20029;-84
2023/09/12 07:00:54;;;;;;;26.00;7.55;;;21.40;91.20;;;;;;5040504;28;20425;-85
2023/09/12 07:03:19;;;;;;;14.57;6.57;;;21.40;91.20;;;;;;5047917;28;20034;-84
2023/09/12 07:05:45;;;;;;;17.00;7.13;;;21.40;91.20;;;;;;5046454;28;20169;-83
2023/09/12 07:08:11;;;;;;;20.30;7.47;;;21.40;91.20;;;;;;5047467;28;20048;-83
2023/09/12 07:10:37;;;;;;;17.92;7.03;;;21.40;91.60;;;;;;5062800;28;20095;-84
2023/09/12 07:13:03;;;;;;;13.77;7.68;;;21.40;91.30;;;;;;5048834;28;20037;-84
2023/09/12 07:15:29;;;;;;;15.65;6.63;;;21.40;91.40;;;;;;5048856;28;20052;-84
2023/09/12 07:17:56;;;;;;;22.20;7.45;;;21.40;91.30;;;;;;5066045;28;20519;-84
2023/09/12 07:20:22;;;;;;;12.15;5.97;;;21.40;91.40;;;;;;5047692;28;20421;-84
2023/09/12 07:22:47;;;;;;;14.35;7.20;;;21.40;91.40;;;;;;5051071;28;20078;-84
2023/09/12 07:25:14;;;;;;;14.13;7.15;;;21.40;91.40;;;;;;5064749;28;20017;-84
2023/09/12 07:27:39;;;;;;;13.77;7.13;;;21.40;91.50;;;;;;5061255;28;20033;-84
2023/09/12 07:30:06;;;;;;;13.60;6.22;;;21.50;91.50;;;;;;5046683;28;20085;-84
2023/09/12 07:32:32;;;;;;;17.35;7.00;;;21.40;91.50;;;;;;5051060;28;20048;-84
2023/09/12 07:34:58;;;;;;;20.55;7.72;;;21.40;91.50;;;;;;5070971;28;20020;-86
2023/09/12 07:37:23;;;;;;;14.15;7.82;;;21.40;91.60;;;;;;5068700;28;20021;-84
2023/09/12 07:39:49;;;;;;;16.02;7.82;;;21.40;91.60;;;;;;5051959;28;20028;-85
2023/09/12 07:42:15;;;;;;;18.52;6.25;;;21.40;91.60;;;;;;5050152;28;20422;-85
2023/09/12 07:44:40;;;;;;;13.20;7.53;;;21.50;92.00;;;;;;5046362;28;20050;-84
2023/09/12 07:47:07;;;;;;;11.82;6.70;;;21.40;91.70;;;;;;5047155;28;20546;-86
2023/09/12 07:49:32;;;;;;;14.02;7.43;;;21.40;91.70;;;;;;5065172;28;20024;-87
2023/09/12 07:51:58;;;;;;;16.10;7.40;;;21.50;91.70;;;;;;5047517;28;20093;-85
2023/09/12 07:54:24;;;;;;;12.93;7.63;;;21.50;91.80;;;;;;5064315;28;20032;-85
2023/09/12 07:56:49;;;;;;;17.67;6.93;;;21.50;91.80;;;;;;5047429;28;20032;-87
2023/09/12 07:59:15;;;;;;;18.88;8.15;;;21.50;91.80;;;;;;5051293;28;20423;-85
2023/09/12 08:01:41;;;;;;;12.45;7.50;;;21.50;91.80;;;;;;5047361;28;20111;-84
2023/09/12 08:04:06;;;;;;;15.50;7.13;;;21.50;91.80;;;;;;5050880;28;20088;-86
2023/09/12 08:06:32;;;;;;;16.67;7.18;;;21.50;91.80;;;;;;5027997;28;20018;-86
2023/09/12 08:08:58;;;;;;;15.88;7.38;;;21.50;91.90;;;;;;5045193;28;20493;-85
2023/09/12 08:11:24;;;;;;;17.73;8.30;;;21.50;91.90;;;;;;5046074;28;20025;-86
2023/09/12 08:13:50;;;;;;;21.42;8.40;;;21.50;91.90;;;;;;5031129;28;20041;-85
2023/09/12 08:16:16;;;;;;;14.98;6.70;;;21.50;91.90;;;;;;5045149;28;20017;-84
2023/09/12 08:18:41;;;;;;;20.17;9.38;;;21.50;91.90;;;;;;5028495;28;20033;-84
2023/09/12 08:21:07;;;;;;;22.30;8.25;;;21.50;91.90;;;;;;5023401;28;20121;-85
2023/09/12 08:23:33;;;;;;;17.08;7.97;;;21.50;91.90;;;;;;5044943;28;20036;-85
2023/09/12 08:25:59;;;;;;;12.35;7.00;;;21.50;91.90;;;;;;5045100;28;20043;-84
2023/09/12 08:28:24;;;;;;;14.70;6.95;;;21.50;91.90;;;;;;5028410;28;20078;-84
2023/09/12 08:30:50;;;;;;;15.88;7.80;;;21.50;92.00;;;;;;5029726;28;20033;-85
2023/09/12 08:33:16;;;;;;;15.45;6.75;;;21.50;92.00;;;;;;5032422;28;20029;-85
2023/09/12 08:35:42;;;;;;;13.93;6.85;;;21.50;92.00;;;;;;5044888;28;20031;-85
2023/09/12 08:38:08;;;;;;;11.48;7.53;;;21.50;92.00;;;;;;5028009;28;20190;-85
2023/09/12 08:40:35;;;;;;;15.35;6.80;;;21.50;92.00;;;;;;5047244;28;20029;-85
2023/09/12 08:43:03;;;;;;;19.45;7.25;;;21.50;92.00;;;;;;5021970;28;20049;-85
2023/09/12 08:45:29;;;;;;;13.57;7.68;;;21.50;92.00;;;;;;5028153;28;20029;-85
2023/09/12 08:48:00;;;;;;;12.93;6.07;;;21.50;92.00;;;;;;5022867;28;20490;-86
2023/09/12 08:50:28;;;;;;;17.67;7.65;;;21.50;92.00;;;;;;5024654;28;20029;-84
2023/09/12 08:52:54;;;;;;;13.13;7.65;;;21.50;92.10;;;;;;5043061;28;20041;-85
2023/09/12 08:55:19;;;;;;;15.88;7.22;;;21.20;92.00;;;;;;5026831;28;20480;-85
2023/09/12 08:57:50;;;;;;;16.08;7.75;;;21.50;92.10;;;;;;5024992;28;20021;-86
2023/09/12 09:00:15;;;;;;;;;;;21.50;92.10;;;;;;5044403;28;20040;-86
2023/09/12 09:02:43;;;;;;;22.73;8.38;;;21.50;92.10;;;;;;5026597;28;19937;-85
2023/09/12 09:05:10;;;;;;;15.05;7.65;;;21.50;92.10;;;;;;5058545;28;20029;-86
2023/09/12 09:07:37;;;;;;;19.33;7.57;;;21.50;92.10;;;;;;5043368;28;20040;-84
2023/09/12 09:10:05;;;;;;;13.02;6.95;;;21.50;92.10;;;;;;5048579;28;20024;-86
2023/09/12 09:12:32;;;;;;;17.52;7.32;;;21.60;92.20;;;;;;5044229;28;20135;-85
2023/09/12 09:14:57;;;;;;;12.48;7.38;;;21.50;92.20;;;;;;5047519;28;20024;-84
2023/09/12 09:17:23;;;;;;;14.20;7.50;;;21.50;92.10;;;;;;5063293;28;20016;-86
2023/09/12 09:19:49;;;;;;;16.75;7.28;;;21.50;92.20;;;;;;5053281;28;20370;-84
2023/09/12 09:22:15;;;;;;;17.77;7.57;;;21.50;92.20;;;;;;5051505;28;20013;-87
2023/09/12 09:24:41;;;;;;;14.40;7.85;;;21.50;92.20;;;;;;5048511;28;20058;-86
2023/09/12 09:27:07;;;;;;;14.18;7.70;;;21.50;92.20;;;;;;5064395;28;20017;-87
2023/09/12 09:29:46;;;;;;;15.80;7.63;;;21.60;92.20;;;;;;5065578;28;20474;-86
2023/09/12 09:32:18;;;;;;;26.88;8.40;;;21.60;92.20;;;;;;5063064;28;20017;-85
2023/09/12 09:34:43;;;;;;;18.35;8.60;;;21.60;92.20;;;;;;5048690;28;20117;-86
2023/09/12 09:37:09;;;;;;;13.93;7.28;;;21.60;92.20;;;;;;5045169;28;20063;-86
2023/09/12 09:39:35;;;;;;;10.25;6.90;;;21.60;92.20;;;;;;5063935;28;20039;-85
2023/09/12 09:42:01;;;;;;;16.73;7.78;;;21.60;92.30;;;;;;5062519;28;20026;-87
2023/09/12 09:44:28;;;;;;;16.40;7.38;;;21.50;92.20;;;;;;5049410;28;20025;-85
2023/09/12 09:47:02;;;;;;;16.73;7.40;;;21.60;92.30;;;;;;5047950;28;20025;-86
2023/09/12 09:49:30;;;;;;;18.80;7.47;;;21.60;92.30;;;;;;5043929;28;20032;-87
2023/09/12 09:51:57;;;;;;;10.68;7.70;;;21.60;92.30;;;;;;5043496;28;20669;-87
2023/09/12 09:54:25;;;;;;;10.52;6.95;;;21.60;92.30;;;;;;5049782;28;20037;-85
2023/09/12 09:56:55;;;;;;;14.45;7.13;;;21.60;92.30;;;;;;5048984;28;20466;-87
2023/09/12 09:59:27;;;;;;;17.63;6.93;;;21.60;92.30;;;;;;5061059;28;20485;-87
2023/09/12 10:01:58;;;;;;;19.73;7.22;;;21.60;92.30;;;;;;5045637;28;20029;-86
2023/09/12 10:04:26;;;;;;;12.52;6.72;;;21.60;92.30;;;;;;5043607;28;20466;-87
2023/09/12 10:06:54;;;;;;;15.10;7.63;;;21.60;92.30;;;;;;5045190;28;20048;-87
2023/09/12 10:09:22;;;;;;;16.67;8.13;;;21.60;92.30;;;;;;5043463;28;20478;-87
2023/09/12 10:11:50;;;;;;;14.02;7.80;;;21.60;92.30;;;;;;5045537;28;20021;-86
2023/09/12 10:14:19;;;;;;;13.93;7.32;;;21.60;92.30;;;;;;5046312;28;20153;-85
2023/09/12 10:16:51;;;;;;;19.05;7.90;;;21.70;92.40;;;;;;5047988;28;20382;-87
2023/09/12 10:19:26;;;;;;;14.32;7.35;;;21.70;92.40;;;;;;5043108;28;20033;-86
2023/09/12 10:22:22;;;;;;;20.02;7.50;;;21.70;92.40;;;;;;5053493;28;20029;-86
2023/09/12 10:24:50;;;;;;;19.05;7.68;;;21.70;92.40;;;;;;5051924;28;20036;-86
2023/09/12 10:27:18;;;;;;;12.93;7.32;;;21.70;92.40;;;;;;5046384;28;20025;-86
2023/09/12 10:29:47;;;;;;;12.55;7.50;;;21.70;92.40;;;;;;5051894;28;20052;-86
2023/09/12 10:32:14;;;;;;;8.40;6.63;;;21.70;92.70;;;;;;5049725;28;20025;-86
2023/09/12 10:34:44;;;;;;;10.98;7.40;;;21.70;92.40;;;;;;5047436;28;20359;-87
2023/09/12 10:37:15;;;;;;;10.57;6.30;;;21.70;92.40;;;;;;5040921;28;20026;-87
2023/09/12 10:39:42;;;;;;;11.48;6.55;;;21.70;92.50;;;;;;5049186;28;20553;-87
2023/09/12 10:42:09;;;;;;;12.93;7.47;;;21.70;92.50;;;;;;5040145;28;20025;-87
2023/09/12 10:44:35;;;;;;;15.77;6.75;;;21.70;92.50;;;;;;5045675;28;20032;-85
2023/09/12 10:47:03;;;;;;;12.95;6.38;;;21.70;92.50;;;;;;5046757;28;20649;-86
2023/09/12 10:49:32;;;;;;;15.27;6.97;;;21.70;92.50;;;;;;5043380;28;20731;-85
2023/09/12 10:51:58;;;;;;;21.88;7.85;;;21.70;92.50;;;;;;5044492;28;20025;-85
2023/09/12 10:54:34;;;;;;;12.63;7.43;;;21.80;92.50;;;;;;5043354;28;20029;-87
2023/09/12 10:57:13;;;;;;;15.65;7.53;;;21.70;92.50;;;;;;5047298;28;20109;-86
2023/09/12 11:00:13;;;;;;;14.13;6.63;;;21.80;92.60;;;;;;5060979;28;20033;-85
2023/09/12 11:02:40;;;;;;;9.48;6.45;;;21.80;92.60;;;;;;5060392;28;20040;-88
2023/09/12 11:05:26;;;;;;;14.18;6.85;;;21.80;92.60;;;;;;5047348;28;20065;-87
2023/09/12 11:07:56;;;;;;;23.85;6.72;;;21.80;92.60;;;;;;5045406;28;20052;-88
2023/09/12 11:10:23;;;;;;;9.43;5.47;;;21.80;92.60;;;;;;5042959;28;20120;-89
2023/09/12 11:12:51;;;;;;;10.35;6.03;;;21.80;92.60;;;;;;5046072;28;20037;-86
2023/09/12 11:15:17;;;;;;;15.50;6.45;;;21.80;92.60;;;;;;5058775;28;20021;-88
2023/09/12 11:17:47;;;;;;;11.65;5.75;;;21.80;92.60;;;;;;5048756;28;20059;-88
2023/09/12 11:20:15;;;;;;;13.57;6.60;;;21.80;92.60;;;;;;5046696;28;20406;-87
2023/09/12 11:22:46;;;;;;;14.13;6.82;;;21.80;92.60;;;;;;5046137;28;20025;-93
2023/09/12 11:25:25;;;;;;;14.10;6.35;;;21.80;92.60;;;;;;5049426;28;20030;-88
2023/09/12 11:27:51;;;;;;;8.48;6.28;;;21.80;92.60;;;;;;5048437;28;20033;-87
2023/09/12 11:30:26;;;;;;;12.32;5.82;;;21.80;92.70;;;;;;5052398;28;20029;-88
2023/09/12 11:32:54;;;;;;;9.05;6.18;;;21.80;92.70;;;;;;5048046;28;20191;-87
2023/09/12 11:35:29;;;;;;;10.57;6.05;;;21.80;92.70;;;;;;5042659;28;20040;-87
2023/09/12 11:37:59;;;;;;;9.55;6.35;;;21.80;92.70;;;;;;5046385;28;20074;-86
2023/09/12 11:40:34;;;;;;;10.02;6.00;;;21.80;92.70;;;;;;5045557;28;20045;-87
2023/09/12 11:43:00;;;;;;;24.05;7.28;;;21.90;92.80;;;;;;5051252;28;21416;-87
2023/09/12 11:45:27;;;;;;;11.65;6.45;;;21.80;92.80;;;;;;5043598;28;20146;-86
2023/09/12 11:47:53;;;;;;;13.95;6.93;;;21.90;92.80;;;;;;5045187;28;20029;-88
2023/09/12 11:50:33;;;;;;;15.60;6.28;;;21.80;92.80;;;;;;5049285;28;20099;-87
2023/09/12 11:53:04;;;;;;;14.73;7.05;;;21.90;92.80;;;;;;5052547;28;20098;-86
2023/09/12 11:55:36;;;;;;;17.80;6.63;;;21.90;92.80;;;;;;5043594;28;20086;-87
2023/09/12 11:58:02;;;;;;;18.48;7.20;;;21.90;92.90;;;;;;5049679;28;20367;-86
2023/09/12 12:00:29;;;;;;;12.05;6.65;;;21.90;92.90;;;;;;5042809;28;20021;-87
2023/09/12 12:02:55;;;;;;;11.32;6.97;;;21.90;92.90;;;;;;5042277;28;20032;-87
2023/09/12 12:05:21;;;;;;;14.82;6.53;;;21.90;92.90;;;;;;5029440;28;20017;-88
2023/09/12 12:07:48;;;;;;;14.02;6.40;;;21.90;92.90;;;;;;5043464;28;20107;-88
2023/09/12 12:10:14;;;;;;;11.25;5.85;;;21.90;93.00;;;;;;5035013;28;20032;-90
2023/09/12 12:12:42;;;;;;;11.63;6.32;;;21.90;93.00;;;;;;5026303;28;20117;-87
2023/09/12 12:15:13;;;;;;;12.45;6.53;;;21.90;93.00;;;;;;5026301;28;20053;-87
2023/09/12 12:17:42;;;;;;;7.38;6.10;;;22.00;93.00;;;;;;5037175;28;20025;-87
2023/09/12 12:20:10;;;;;;;14.30;6.10;;;22.20;93.10;;;;;;5030844;28;20029;-87
2023/09/12 12:22:37;;;;;;;16.88;6.78;;;22.00;93.00;;;;;;5048086;28;20090;-86
2023/09/12 12:25:10;;;;;;;7.78;5.25;;;22.00;93.00;;;;;;5025683;28;20026;-87
2023/09/12 12:27:40;;;;;;;12.07;6.15;;;22.00;93.00;;;;;;5014193;28;20033;-86
2023/09/12 12:30:11;;;;;;;9.00;5.95;;;22.00;93.10;;;;;;5049643;28;20029;-87
2023/09/12 12:32:41;;;;;;;12.77;6.30;;;21.90;93.00;;;;;;5024787;28;20034;-86
2023/09/12 12:35:08;;;;;;;19.45;7.53;;;22.00;93.10;;;;;;5031628;28;20052;-87
2023/09/12 12:37:34;;;;;;;10.73;6.50;;;22.00;93.10;;;;;;5027576;28;20052;-86
2023/09/12 12:40:06;;;;;;;9.02;5.20;;;22.00;93.10;;;;;;5032931;28;20478;-86
2023/09/12 12:42:38;;;;;;;9.77;6.35;;;22.00;93.10;;;;;;5024361;28;20466;-86
2023/09/12 12:45:15;;;;;;;17.08;5.78;;;22.00;93.40;;;;;;5027444;28;20113;-88
2023/09/12 12:47:41;;;;;;;12.30;6.50;;;22.00;93.10;;;;;;5025418;28;20036;-91
2023/09/12 12:50:19;;;;;;;12.00;7.13;;;22.00;93.10;;;;;;5025420;28;20033;-86
2023/09/12 12:52:47;;;;;;;17.02;6.97;;;22.00;93.10;;;;;;5046157;28;20029;-87
2023/09/12 12:55:19;;;;;;;14.77;6.47;;;22.00;93.10;;;;;;5044678;28;20498;-87
2023/09/12 12:57:47;;;;;;;13.18;6.43;;;22.00;93.10;;;;;;5027807;28;20025;-87
2023/09/12 13:00:15;;;;;;;10.27;5.72;;;22.00;93.10;;;;;;5046136;28;20096;-87
2023/09/12 13:02:42;;;;;;;10.57;6.03;;;22.00;93.10;;;;;;5031826;28;20093;-89
2023/09/12 13:05:21;;;;;;;17.10;6.47;;;22.00;93.50;;;;;;5042053;28;20174;-86
2023/09/12 13:07:46;;;;;;;11.70;6.00;;;22.00;93.10;;;;;;5042335;28;20078;-93
2023/09/12 13:10:12;;;;;;;9.63;5.38;;;22.20;92.60;;;;;;5046398;28;20107;-94
2023/09/12 13:12:38;;;;;;;10.07;5.35;;;22.50;91.50;;;;;;5048284;28;20404;-94
2023/09/12 13:15:04;;;;;;;14.95;4.75;;;22.60;90.90;;;;;;5049441;28;20036;-91
2023/09/12 13:17:30;;;;;;;16.38;5.85;;;22.70;89.90;;;;;;5042989;28;20025;-92
2023/09/12 13:19:56;;;;;;;7.50;5.30;;;22.70;89.90;;;;;;5049577;28;20481;-93
2023/09/12 13:22:22;;;;;;;14.00;6.15;;;22.70;89.50;;;;;;5045839;28;20031;-93
2023/09/12 13:24:47;;;;;;;7.85;5.22;;;22.70;89.40;;;;;;5064534;28;20036;-94
2023/09/12 13:27:14;;;;;;;12.55;6.03;;;22.80;89.30;;;;;;5047173;28;20028;-95
2023/09/12 13:29:39;;;;;;;9.88;5.55;;;22.70;90.00;;;;;;5043694;28;20041;-95
2023/09/12 13:32:05;;;;;;;11.35;5.90;;;22.70;90.20;;;;;;5048777;28;20028;-92
2023/09/12 13:34:31;;;;;;;12.57;6.07;;;22.80;89.50;;;;;;5065838;28;20040;-92
2023/09/12 13:36:58;;;;;;;9.82;5.45;;;22.80;89.20;;;;;;5067256;28;20024;-93
2023/09/12 13:39:24;;;;;;;9.07;4.95;;;23.00;88.70;;;;;;5047749;28;20033;-95
2023/09/12 13:41:50;;;;;;;7.05;5.50;;;22.90;90.20;;;;;;5049456;28;20028;-92
2023/09/12 13:44:17;;;;;;;9.90;5.03;;;22.90;90.10;;;;;;5058616;28;20085;-96
2023/09/12 13:46:44;;;;;;;8.45;4.90;;;23.00;88.80;;;;;;5068507;28;20058;-95
2023/09/12 13:49:10;;;;;;;11.35;5.30;;;23.10;87.80;;;;;;5052490;28;20028;-89
2023/09/12 13:51:36;;;;;;;9.60;5.15;;;23.10;87.10;;;;;;5048238;28;20474;-96
2023/09/12 13:54:02;;;;;;;15.68;4.55;;;23.10;85.20;;;;;;5061815;28;20071;-93
2023/09/12 13:56:28;;;;;;;7.20;5.00;;;23.00;86.10;;;;;;5045964;28;20031;-95
2023/09/12 13:58:54;;;;;;;17.40;5.72;;;23.10;86.00;;;;;;5047549;28;20116;-93
2023/09/12 14:01:20;;;;;;;9.65;5.53;;;23.10;86.50;;;;;;5053260;28;20563;-94
2023/09/12 14:03:46;;;;;;;11.05;4.80;;;23.10;87.70;;;;;;5044103;28;20032;-94
2023/09/12 14:06:11;;;;;;;9.57;5.35;;;23.20;87.50;;;;;;5037390;28;20120;-93
2023/09/12 14:08:37;;;;;;;10.57;5.90;;;23.20;86.90;;;;;;5040660;28;20041;-91
2023/09/12 14:11:03;;;;;;;9.38;5.45;;;23.10;87.40;;;;;;5047053;28;20496;-95
2023/09/12 14:13:29;;;;;;;10.18;5.32;;;23.10;87.70;;;;;;5051518;28;20029;-95
2023/09/12 14:15:54;;;;;;;9.88;4.68;;;23.10;86.80;;;;;;5041527;28;20021;-92
2023/09/12 14:18:20;;;;;;;8.48;5.25;;;23.20;84.20;;;;;;5049513;28;20021;-94
2023/09/12 14:20:46;;;;;;;13.77;5.40;;;23.20;85.30;;;;;;5052572;28;20032;-94
2023/09/12 14:23:12;;;;;;;13.35;5.47;;;23.20;85.10;;;;;;5047790;28;20018;-95
2023/09/12 14:25:37;;;;;;;9.25;5.40;;;23.20;85.90;;;;;;5050112;28;20024;-95
2023/09/12 14:28:04;;;;;;;17.13;5.63;;;23.20;85.40;;;;;;5056985;28;20044;-94
2023/09/12 14:30:36;;;;;;;7.88;5.22;;;23.10;85.90;;;;;;5049305;28;20057;-91
2023/09/12 14:33:02;;;;;;;9.25;5.03;;;23.10;85.80;;;;;;5046188;28;20040;-92
2023/09/12 14:35:28;;;;;;;13.70;6.00;;;23.10;85.40;;;;;;5048653;28;20473;-91
2023/09/12 14:37:54;;;;;;;10.35;5.00;;;23.10;85.40;;;;;;5044811;28;20125;-93
2023/09/12 14:40:20;;;;;;;11.30;5.95;;;23.00;84.90;;;;;;5046677;28;20518;-93
2023/09/12 14:42:46;;;;;;;7.88;5.22;;;23.10;85.30;;;;;;5051096;28;20108;-93
2023/09/12 14:45:13;;;;;;;11.13;5.43;;;23.10;84.00;;;;;;5045562;28;20064;-94
2023/09/12 14:47:39;;;;;;;12.18;5.60;;;23.10;85.00;;;;;;5053336;28;20748;-93
2023/09/12 14:50:05;;;;;;;11.55;5.18;;;23.00;85.10;;;;;;5048988;28;20425;-91
2023/09/12 14:52:31;;;;;;;9.07;5.13;;;23.00;85.10;;;;;;5046954;28;20120;-85
2023/09/12 14:54:57;;;;;;;14.00;5.63;;;23.00;85.60;;;;;;5047447;28;20025;-89
2023/09/12 14:57:23;;;;;;;11.48;6.25;;;23.00;85.60;;;;;;5049507;28;20057;-88
2023/09/12 14:59:50;;;;;;;10.77;5.40;;;23.00;85.60;;;;;;5050966;28;20061;-85
2023/09/12 15:02:16;;;;;;;16.63;5.47;;;23.00;85.20;;;;;;5048106;28;20492;-88
2023/09/12 15:04:42;;;;;;;14.45;6.40;;;23.00;85.70;;;;;;5046873;28;20100;-88
2023/09/12 15:07:08;;;;;;;9.38;5.05;;;22.90;85.90;;;;;;5046544;28;20116;-87
2023/09/12 15:09:34;;;;;;;10.57;5.10;;;22.90;86.10;;;;;;5049238;28;20122;-86
2023/09/12 15:11:59;;;;;;;16.40;6.03;;;22.90;86.20;;;;;;5030179;28;20549;-88
2023/09/12 15:14:26;;;;;;;6.57;5.05;;;22.90;86.10;;;;;;5047128;28;20029;-84
2023/09/12 15:16:51;;;;;;;8.75;5.10;;;22.90;85.90;;;;;;5027187;28;20017;-88
2023/09/12 15:19:17;;;;;;;12.73;5.25;;;22.90;86.00;;;;;;5027286;28;20398;-86
2023/09/12 15:21:42;;;;;;;7.95;5.25;;;22.90;86.20;;;;;;5044477;28;20017;-87
2023/09/12 15:24:08;;;;;;;13.45;5.82;;;22.90;86.40;;;;;;5025161;28;20029;-86
2023/09/12 15:26:34;;;;;;;10.27;5.85;;;22.90;86.70;;;;;;5027643;28;20477;-87
2023/09/12 15:29:01;;;;;;;9.25;5.75;;;22.80;86.80;;;;;;5046747;28;20076;-88
2023/09/12 15:31:28;;;;;;;11.70;5.55;;;22.80;87.00;;;;;;5027582;28;20162;-89
2023/09/12 15:33:57;;;;;;;21.50;6.47;;;22.80;87.20;;;;;;5045728;28;20029;-86
2023/09/12 15:36:22;;;;;;;8.23;5.50;;;22.80;87.20;;;;;;5047328;28;21716;-86
2023/09/12 15:38:48;;;;;;;9.80;5.60;;;22.80;87.00;;;;;;5028299;28;20124;-87